Chemical Pioneer — KAFO — position and weather

sailwx.info

Track history (hours):
 
Tides and Currents Weather Stations Pressure Air Temp Water Temp Dewpoint Dewpoint Depression Visibility Wind Speed Wind Dir Waves Ship Positions

Chemical Pioneer

Owner: US Shipping Corp, Edison, NJ. More information available from US FCC via Universal Licensing System and Coast Guard Vessel Documentation Center.

Last reported at 2017-Dec-11 15:36 UTC. Time now 2017-Dec-11 20:55 UTC.
Position N 29°14' W 094°37'.

Type: Tanker. MMSI: 366032000.

Date/timePositionNaut miles runAvg speedWind from/ knotsBaromVisibWave heightAir tempDewpointWater temp
2017-Dec-11 15:36N 29°14' W 094°37'1 6.6
2017-Dec-11 15:27N 29°14' W 094°36'  
2017-Dec-06 21:29N 29°21' W 094°44'612.0
2017-Dec-06 21:00N 29°22' W 094°50'  
2017-Dec-04 08:25N 30°13' W 093°17'0 0.0
2017-Dec-04 06:43N 30°13' W 093°17'0 0.0
2017-Dec-04 06:19N 30°13' W 093°17'0 0.0
2017-Dec-04 05:55N 30°13' W 093°17'0 0.0
2017-Dec-04 04:49N 30°13' W 093°17'0 0.2
2017-Dec-04 04:31N 30°13' W 093°17'2 4.2
2017-Dec-04 04:00N 30°12' W 093°18'2 4.9
2017-Dec-04 03:30N 30°10' W 093°19'3 5.5
2017-Dec-04 03:00N 30°07' W 093°20'5 9.2
2017-Dec-04 02:30N 30°02' W 093°20'5 9.0
2017-Dec-04 02:00N 29°58' W 093°20'611.8
2017-Dec-04 01:31N 29°52' W 093°21'611.9
2017-Dec-04 00:58N 29°45' W 093°21'714.6
2017-Dec-04 00:29N 29°39' W 093°19'611.2
2017-Dec-03 23:59N 29°34' W 093°15'610.8
2017-Dec-03 23:27N 29°29' W 093°13'812.0
2017-Dec-03 22:46N 29°21' W 093°13'  
2017-Dec-01 18:45N 25°16' W 080°05'415.4
2017-Dec-01 18:30N 25°20' W 080°03'715.2
2017-Dec-01 18:01N 25°27' W 080°01'815.5
2017-Dec-01 17:30N 25°35' W 080°01'815.8
2017-Dec-01 17:00N 25°42' W 080°01'816.2
2017-Dec-01 16:30N 25°51' W 080°00'816.3
2017-Dec-01 16:00N 25°59' W 079°59'  
Track history (hours):
 
Tides and Currents Weather Stations Pressure Air Temp Water Temp Dewpoint Dewpoint Depression Visibility Wind Speed Wind Dir Waves Ship Positions

Chemical Pioneer

Owner: US Shipping Corp, Edison, NJ. More information available from US FCC via Universal Licensing System and Coast Guard Vessel Documentation Center.

Last reported at 2017-Dec-11 15:36 UTC. Time now 2017-Dec-11 20:55 UTC.
Position N 29°14' W 094°37'.

Type: Tanker. MMSI: 366032000.

Date/timePositionNaut miles runAvg speedWind from/ knotsBaromVisibWave heightAir tempDewpointWater temp
2017-Dec-11 15:36N 29°14' W 094°37'1 6.6
2017-Dec-11 15:27N 29°14' W 094°36'  
2017-Dec-06 21:29N 29°21' W 094°44'612.0
2017-Dec-06 21:00N 29°22' W 094°50'  
2017-Dec-04 08:25N 30°13' W 093°17'0 0.0
2017-Dec-04 06:43N 30°13' W 093°17'0 0.0
2017-Dec-04 06:19N 30°13' W 093°17'0 0.0
2017-Dec-04 05:55N 30°13' W 093°17'0 0.0
2017-Dec-04 04:49N 30°13' W 093°17'0 0.2
2017-Dec-04 04:31N 30°13' W 093°17'2 4.2
2017-Dec-04 04:00N 30°12' W 093°18'2 4.9
2017-Dec-04 03:30N 30°10' W 093°19'3 5.5
2017-Dec-04 03:00N 30°07' W 093°20'5 9.2
2017-Dec-04 02:30N 30°02' W 093°20'5 9.0
2017-Dec-04 02:00N 29°58' W 093°20'611.8
2017-Dec-04 01:31N 29°52' W 093°21'611.9
2017-Dec-04 00:58N 29°45' W 093°21'714.6
2017-Dec-04 00:29N 29°39' W 093°19'611.2
2017-Dec-03 23:59N 29°34' W 093°15'610.8
2017-Dec-03 23:27N 29°29' W 093°13'812.0
2017-Dec-03 22:46N 29°21' W 093°13'  
2017-Dec-01 18:45N 25°16' W 080°05'415.4
2017-Dec-01 18:30N 25°20' W 080°03'715.2
2017-Dec-01 18:01N 25°27' W 080°01'815.5
2017-Dec-01 17:30N 25°35' W 080°01'815.8
2017-Dec-01 17:00N 25°42' W 080°01'816.2
2017-Dec-01 16:30N 25°51' W 080°00'816.3
2017-Dec-01 16:00N 25°59' W 079°59'  

Dump ship's entire track history